createdAt,value
2022-12-31T00:00:55.315Z,2.20
2022-12-31T00:03:29.361Z,2.47
2022-12-31T00:05:59.437Z,1.65
2022-12-31T00:08:34.005Z,1.75
2022-12-31T00:11:05.287Z,2.35
2022-12-31T00:13:34.062Z,1.27
2022-12-31T00:16:12.465Z,1.55
2022-12-31T00:18:44.624Z,1.20
2022-12-31T00:21:19.399Z,2.80
2022-12-31T00:23:48.307Z,3.05
2022-12-31T00:26:22.002Z,2.10
2022-12-31T00:29:05.659Z,1.25
2022-12-31T00:31:37.976Z,1.20
2022-12-31T00:34:09.657Z,1.10
2022-12-31T00:36:42.071Z,1.40
2022-12-31T00:39:16.162Z,1.70
2022-12-31T00:42:20.940Z,2.08
2022-12-31T00:45:00.902Z,1.50
2022-12-31T00:47:38.625Z,1.35
2022-12-31T00:50:30.761Z,1.55
2022-12-31T00:53:17.676Z,4.18
2022-12-31T00:56:02.950Z,1.30
2022-12-31T00:58:38.010Z,1.73
2022-12-31T01:01:15.066Z,0.82
2022-12-31T01:03:48.963Z,1.48
2022-12-31T01:09:10.350Z,2.58
2022-12-31T01:11:41.275Z,1.25
2022-12-31T01:14:15.831Z,0.75
2022-12-31T01:16:53.203Z,2.17
2022-12-31T01:19:24.073Z,1.15
2022-12-31T01:21:55.931Z,1.42
2022-12-31T01:24:29.005Z,1.35
2022-12-31T01:27:12.072Z,0.70
2022-12-31T01:29:42.710Z,1.17
2022-12-31T01:32:16.290Z,1.10
2022-12-31T01:34:47.563Z,0.90
2022-12-31T01:37:19.199Z,0.95
2022-12-31T01:39:50.036Z,1.77
2022-12-31T01:42:20.043Z,1.10
2022-12-31T01:44:55.666Z,1.60
2022-12-31T01:47:40.308Z,1.17
2022-12-31T01:50:17.003Z,1.08
2022-12-31T01:52:50.235Z,0.90
2022-12-31T01:55:23.646Z,1.05
2022-12-31T01:58:13.692Z,1.30
2022-12-31T02:00:47.145Z,0.88
2022-12-31T02:03:18.875Z,1.35
2022-12-31T02:05:55.295Z,1.20
2022-12-31T02:08:26.752Z,3.05
2022-12-31T02:11:00.141Z,1.48
2022-12-31T02:13:36.966Z,1.17
2022-12-31T02:16:19.301Z,0.55
2022-12-31T02:19:05.949Z,0.95
2022-12-31T02:21:45.477Z,0.60
2022-12-31T02:24:31.654Z,0.80
2022-12-31T02:27:14.298Z,1.95
2022-12-31T02:30:11.766Z,1.85
2022-12-31T02:33:29.199Z,1.30
2022-12-31T02:36:22.143Z,1.30
2022-12-31T02:42:09.150Z,1.25
2022-12-31T02:47:55.698Z,1.15
2022-12-31T02:54:08.770Z,1.85
2022-12-31T02:56:44.547Z,2.35
2022-12-31T02:59:45.035Z,2.85
2022-12-31T03:02:36.681Z,1.40
2022-12-31T03:05:13.510Z,1.88
2022-12-31T03:08:04.557Z,0.65
2022-12-31T03:10:54.680Z,1.40
2022-12-31T03:13:37.688Z,1.40
2022-12-31T03:17:10.914Z,2.25
2022-12-31T03:19:29.699Z,1.67
2022-12-31T03:22:49.036Z,1.50
2022-12-31T03:25:47.524Z,2.78
2022-12-31T03:28:36.669Z,1.38
2022-12-31T03:31:45.921Z,1.42
2022-12-31T03:37:42.308Z,1.00
2022-12-31T03:43:57.614Z,1.10
2022-12-31T03:46:43.988Z,1.45
2022-12-31T03:49:23.192Z,1.38
2022-12-31T03:52:09.886Z,1.55
2022-12-31T03:54:43.990Z,0.80
2022-12-31T03:57:15.476Z,1.63
2022-12-31T03:59:51.164Z,1.38
2022-12-31T04:02:45.021Z,1.70
2022-12-31T04:05:28.965Z,0.93
2022-12-31T04:08:00.563Z,1.73
2022-12-31T04:10:29.295Z,0.90
2022-12-31T04:13:06.835Z,1.38
2022-12-31T04:15:43.832Z,3.22
2022-12-31T04:18:23.664Z,0.65
2022-12-31T04:21:03.574Z,2.28
2022-12-31T04:23:40.247Z,1.48
2022-12-31T04:26:18.289Z,1.73
2022-12-31T04:29:00.048Z,1.20
2022-12-31T04:31:49.975Z,1.25
2022-12-31T04:34:28.384Z,3.55
2022-12-31T04:37:04.974Z,1.52
2022-12-31T04:39:35.770Z,1.90
2022-12-31T04:42:15.888Z,0.95
2022-12-31T04:44:48.589Z,1.17
2022-12-31T04:47:27.057Z,1.52
2022-12-31T04:50:12.251Z,3.03
2022-12-31T04:52:52.980Z,1.55
2022-12-31T04:55:26.325Z,1.33
2022-12-31T04:58:22.929Z,1.85
2022-12-31T05:01:14.586Z,1.58
2022-12-31T05:04:07.332Z,1.50
2022-12-31T05:06:46.685Z,1.15
2022-12-31T05:09:30.469Z,1.67
2022-12-31T05:12:04.368Z,1.38
2022-12-31T05:14:39.289Z,1.33
2022-12-31T05:17:12.114Z,1.40
2022-12-31T05:19:47.867Z,1.77
2022-12-31T05:22:44.642Z,1.00
2022-12-31T05:25:21.029Z,1.30
2022-12-31T05:27:53.355Z,3.20
2022-12-31T05:30:22.280Z,1.05
2022-12-31T05:32:58.380Z,0.68
2022-12-31T05:35:36.308Z,2.42
2022-12-31T05:38:21.840Z,1.58
2022-12-31T05:40:56.626Z,1.98
2022-12-31T05:43:27.252Z,1.83
2022-12-31T05:46:00.573Z,2.40
2022-12-31T05:48:36.448Z,1.38
2022-12-31T05:51:14.834Z,1.52
2022-12-31T05:53:43.560Z,1.23
2022-12-31T05:56:23.292Z,3.33
2022-12-31T05:58:53.758Z,4.18
2022-12-31T06:01:23.751Z,3.10
2022-12-31T06:03:52.506Z,3.47
2022-12-31T06:06:26.134Z,1.77
2022-12-31T06:08:54.908Z,2.17
2022-12-31T06:11:26.667Z,1.15
2022-12-31T06:13:55.344Z,1.17
2022-12-31T06:16:27.343Z,1.20
2022-12-31T06:18:56.877Z,2.72
2022-12-31T06:21:27.162Z,1.55
2022-12-31T06:24:01.171Z,1.38
2022-12-31T06:26:32.643Z,1.10
2022-12-31T06:29:03.905Z,2.50
2022-12-31T06:31:35.337Z,1.15
2022-12-31T06:34:14.134Z,1.17
2022-12-31T06:36:47.758Z,2.50
2022-12-31T06:39:22.222Z,1.27
2022-12-31T06:41:54.465Z,2.47
2022-12-31T06:44:25.114Z,1.60
2022-12-31T06:46:53.926Z,2.42
2022-12-31T06:49:22.539Z,1.85
2022-12-31T06:52:00.896Z,1.60
2022-12-31T06:54:39.991Z,2.25
2022-12-31T06:57:18.554Z,1.60
2022-12-31T06:59:50.707Z,2.15
2022-12-31T07:02:31.670Z,1.17
2022-12-31T07:05:18.938Z,1.20
2022-12-31T07:08:00.454Z,1.45
2022-12-31T07:10:31.654Z,2.65
2022-12-31T07:13:14.114Z,1.20
2022-12-31T07:15:52.295Z,2.13
2022-12-31T07:18:44.986Z,1.13
2022-12-31T07:21:32.015Z,0.88
2022-12-31T07:24:16.275Z,0.82
2022-12-31T07:27:14.847Z,1.52
2022-12-31T07:30:01.752Z,2.03
2022-12-31T07:32:49.659Z,1.55
2022-12-31T07:35:35.245Z,1.25
2022-12-31T07:38:13.015Z,2.35
2022-12-31T07:40:54.193Z,1.60
2022-12-31T07:43:31.546Z,2.72
2022-12-31T07:46:27.922Z,1.38
2022-12-31T07:49:04.340Z,2.42
2022-12-31T07:51:38.436Z,3.13
2022-12-31T07:54:14.129Z,0.90
2022-12-31T07:56:49.152Z,1.10
2022-12-31T07:59:27.264Z,1.10
2022-12-31T08:02:00.338Z,1.50
2022-12-31T08:04:29.725Z,1.60
2022-12-31T08:07:03.354Z,1.23
2022-12-31T08:09:38.217Z,1.30
2022-12-31T08:12:10.824Z,1.77
2022-12-31T08:14:41.784Z,2.08
2022-12-31T08:17:11.968Z,1.77
2022-12-31T08:19:40.685Z,1.55
2022-12-31T08:22:24.626Z,1.17
2022-12-31T08:24:58.566Z,3.00
2022-12-31T08:27:35.624Z,1.35
2022-12-31T08:30:07.497Z,1.42
2022-12-31T08:32:38.645Z,1.00
2022-12-31T08:35:17.279Z,1.88
2022-12-31T08:37:49.137Z,1.02
2022-12-31T08:40:22.006Z,1.15
2022-12-31T08:42:58.359Z,1.13
2022-12-31T08:45:31.568Z,1.70
2022-12-31T08:48:03.815Z,1.98
2022-12-31T08:50:32.628Z,2.05
2022-12-31T08:53:01.679Z,3.65
2022-12-31T08:55:30.733Z,1.83
2022-12-31T08:58:10.376Z,1.70
2022-12-31T09:00:39.460Z,2.08
2022-12-31T09:03:26.691Z,1.17
2022-12-31T09:06:02.571Z,3.42
2022-12-31T09:08:38.284Z,3.95
2022-12-31T09:11:22.651Z,3.03
2022-12-31T09:14:07.206Z,2.58
2022-12-31T09:16:45.663Z,1.55
2022-12-31T09:19:16.808Z,2.05
2022-12-31T09:21:45.584Z,1.55
2022-12-31T09:24:14.963Z,1.67
2022-12-31T09:26:52.273Z,1.45
2022-12-31T09:29:28.655Z,1.70
2022-12-31T09:32:02.991Z,1.10
2022-12-31T09:34:39.485Z,1.88
2022-12-31T09:37:18.622Z,1.25
2022-12-31T09:39:52.056Z,1.45
2022-12-31T09:42:36.685Z,1.88
2022-12-31T09:45:25.197Z,2.17
2022-12-31T09:48:09.969Z,1.85
2022-12-31T09:50:51.607Z,2.47
2022-12-31T09:53:40.728Z,4.70
2022-12-31T09:56:14.982Z,4.03
2022-12-31T09:58:48.244Z,1.50
2022-12-31T10:01:35.817Z,1.52
2022-12-31T10:04:30.712Z,2.08
2022-12-31T10:07:07.494Z,2.75
2022-12-31T10:09:51.558Z,2.17
2022-12-31T10:12:35.309Z,1.92
2022-12-31T10:15:12.060Z,1.23
2022-12-31T10:17:51.141Z,3.00
2022-12-31T10:20:30.902Z,2.50
2022-12-31T10:23:17.078Z,2.25
2022-12-31T10:25:56.201Z,1.52
2022-12-31T10:28:29.360Z,3.30
2022-12-31T10:31:02.805Z,2.28
2022-12-31T10:33:37.306Z,0.98
2022-12-31T10:36:10.614Z,1.63
2022-12-31T10:38:45.340Z,0.90
2022-12-31T10:41:35.866Z,1.73
2022-12-31T10:44:24.152Z,1.00
2022-12-31T10:47:05.518Z,1.88
2022-12-31T10:49:54.249Z,1.20
2022-12-31T10:52:51.634Z,3.53
2022-12-31T10:55:51.465Z,1.42
2022-12-31T10:58:34.876Z,3.40
2022-12-31T11:01:11.998Z,2.53
2022-12-31T11:04:02.599Z,2.42
2022-12-31T11:06:55.661Z,1.75
2022-12-31T11:09:43.694Z,2.30
2022-12-31T11:12:17.744Z,1.63
2022-12-31T11:15:02.434Z,1.55
2022-12-31T11:17:36.439Z,2.45
2022-12-31T11:20:20.398Z,2.58
2022-12-31T11:25:33.294Z,4.10
2022-12-31T11:28:23.284Z,1.80
2022-12-31T11:30:59.678Z,1.92
2022-12-31T11:33:36.423Z,3.67
2022-12-31T11:36:17.723Z,1.65
2022-12-31T11:38:54.223Z,2.78
2022-12-31T11:41:28.493Z,1.67
2022-12-31T11:44:06.775Z,2.40
2022-12-31T11:46:40.734Z,1.33
2022-12-31T11:49:16.406Z,1.95
2022-12-31T11:51:51.523Z,1.75
2022-12-31T11:54:35.437Z,1.70
2022-12-31T11:59:34.977Z,2.58
2022-12-31T12:02:06.270Z,1.70
2022-12-31T12:04:36.017Z,2.35
2022-12-31T12:07:06.288Z,1.98
2022-12-31T12:09:39.646Z,3.97
2022-12-31T12:12:09.136Z,4.97
2022-12-31T12:14:39.656Z,3.78
2022-12-31T12:17:09.293Z,1.73
2022-12-31T12:19:43.274Z,2.22
2022-12-31T12:22:12.869Z,2.22
2022-12-31T12:24:41.317Z,2.10
2022-12-31T12:27:22.409Z,2.08
2022-12-31T12:29:52.185Z,2.33
2022-12-31T12:32:27.280Z,1.70
2022-12-31T12:34:55.824Z,1.55
2022-12-31T12:37:28.542Z,2.90
2022-12-31T12:39:57.929Z,2.50
2022-12-31T12:42:26.347Z,2.42
2022-12-31T12:45:07.048Z,2.42
2022-12-31T12:47:36.127Z,2.80
2022-12-31T12:50:06.716Z,2.17
2022-12-31T12:52:59.487Z,2.50
2022-12-31T12:55:31.627Z,2.17
2022-12-31T12:58:06.331Z,2.83
2022-12-31T13:00:40.173Z,2.40
2022-12-31T13:03:26.617Z,2.55
2022-12-31T13:06:00.028Z,1.92
2022-12-31T13:08:33.154Z,1.77
2022-12-31T13:11:09.133Z,1.88
2022-12-31T13:13:41.401Z,1.23
2022-12-31T13:16:15.573Z,2.42
2022-12-31T13:18:51.189Z,1.88
2022-12-31T13:21:24.286Z,2.50
2022-12-31T13:23:56.103Z,2.33
2022-12-31T13:26:31.702Z,1.52
2022-12-31T13:29:00.949Z,2.13
2022-12-31T13:31:44.836Z,2.40
2022-12-31T13:36:43.020Z,2.58
2022-12-31T13:39:16.633Z,4.25
2022-12-31T13:44:16.193Z,3.15
2022-12-31T13:46:50.761Z,3.92
2022-12-31T13:49:23.116Z,2.90
2022-12-31T13:51:54.312Z,2.55
2022-12-31T13:54:31.168Z,2.45
2022-12-31T13:57:03.201Z,2.53
2022-12-31T13:59:37.149Z,2.25
2022-12-31T14:02:11.499Z,3.15
2022-12-31T14:04:42.324Z,3.22
2022-12-31T14:07:13.192Z,2.33
2022-12-31T14:09:42.523Z,1.85
2022-12-31T14:12:46.731Z,1.67
2022-12-31T14:15:25.915Z,2.55
2022-12-31T14:18:14.334Z,2.88
2022-12-31T14:20:51.141Z,3.40
2022-12-31T14:23:25.370Z,2.38
2022-12-31T14:25:57.069Z,1.70
2022-12-31T14:28:27.444Z,1.70
2022-12-31T14:30:58.889Z,1.70
2022-12-31T14:33:57.718Z,1.52
2022-12-31T14:36:36.987Z,4.05
2022-12-31T14:39:20.900Z,2.95
2022-12-31T14:41:57.473Z,2.20
2022-12-31T14:44:32.334Z,2.20
2022-12-31T14:47:09.379Z,2.03
2022-12-31T14:49:42.831Z,1.23
2022-12-31T14:52:21.709Z,1.33
2022-12-31T14:54:59.451Z,2.13
2022-12-31T14:57:28.853Z,1.45
2022-12-31T14:59:58.447Z,1.50
2022-12-31T15:02:31.430Z,2.00
2022-12-31T15:05:07.526Z,3.03
2022-12-31T15:07:41.270Z,5.10
2022-12-31T15:12:47.979Z,2.50
2022-12-31T15:15:29.346Z,1.38
2022-12-31T15:18:03.723Z,1.73
2022-12-31T15:20:46.980Z,2.58
2022-12-31T15:23:22.134Z,2.30
2022-12-31T15:25:51.642Z,1.98
2022-12-31T15:28:32.589Z,3.65
2022-12-31T15:31:04.519Z,2.00
2022-12-31T15:33:34.052Z,2.03
2022-12-31T15:36:13.448Z,1.70
2022-12-31T15:38:44.279Z,1.48
2022-12-31T15:41:27.889Z,2.60
2022-12-31T15:43:58.595Z,2.30
2022-12-31T15:46:28.485Z,1.70
2022-12-31T15:49:04.968Z,2.30
2022-12-31T15:51:37.913Z,1.70
2022-12-31T15:54:11.605Z,2.78
2022-12-31T15:59:15.816Z,1.77
2022-12-31T16:01:45.566Z,2.05
2022-12-31T16:04:19.932Z,2.45
2022-12-31T16:06:50.855Z,2.40
2022-12-31T16:09:28.311Z,2.20
2022-12-31T16:11:57.981Z,2.22
2022-12-31T16:14:27.459Z,1.90
2022-12-31T16:16:57.107Z,2.15
2022-12-31T16:19:32.265Z,2.30
2022-12-31T16:22:03.202Z,2.05
2022-12-31T16:24:35.210Z,2.63
2022-12-31T16:27:08.421Z,13.77
2022-12-31T16:29:37.699Z,2.92
2022-12-31T16:32:09.092Z,5.97
2022-12-31T16:34:38.568Z,5.53
2022-12-31T16:37:07.792Z,4.70
2022-12-31T16:39:38.178Z,9.70
2022-12-31T16:42:13.618Z,16.48
2022-12-31T16:44:42.690Z,8.27
2022-12-31T16:47:12.453Z,6.03
2022-12-31T16:49:41.381Z,6.28
2022-12-31T16:52:13.007Z,3.25
2022-12-31T16:54:46.119Z,4.05
2022-12-31T16:57:22.626Z,7.78
2022-12-31T16:59:54.704Z,10.55
2022-12-31T17:02:25.384Z,13.18
2022-12-31T17:04:56.323Z,15.98
2022-12-31T17:07:29.566Z,13.40
2022-12-31T17:10:06.129Z,9.32
2022-12-31T17:12:53.082Z,9.50
2022-12-31T17:15:25.590Z,12.55
2022-12-31T17:17:57.405Z,20.40
2022-12-31T17:20:27.413Z,12.25
2022-12-31T17:22:58.082Z,6.15
2022-12-31T17:25:28.961Z,2.50
2022-12-31T17:28:06.961Z,4.18
2022-12-31T17:30:40.213Z,5.43
2022-12-31T17:33:27.384Z,2.67
2022-12-31T17:35:57.138Z,3.22
2022-12-31T17:38:32.973Z,3.22
2022-12-31T17:41:17.563Z,2.30
2022-12-31T17:43:45.985Z,4.40
2022-12-31T17:46:16.093Z,3.10
2022-12-31T17:48:45.126Z,3.10
2022-12-31T17:51:13.521Z,2.88
2022-12-31T17:53:41.974Z,4.15
2022-12-31T17:56:18.299Z,3.15
2022-12-31T17:58:48.139Z,10.00
2022-12-31T18:01:18.062Z,13.13
2022-12-31T18:03:47.862Z,26.13
2022-12-31T18:06:17.296Z,7.90
2022-12-31T18:08:45.703Z,4.85
2022-12-31T18:11:18.537Z,4.30
2022-12-31T18:13:47.204Z,2.90
2022-12-31T18:16:15.900Z,3.28
2022-12-31T18:18:46.811Z,5.72
2022-12-31T18:21:17.955Z,5.70
2022-12-31T18:23:47.819Z,2.95
2022-12-31T18:26:18.516Z,2.42
2022-12-31T18:28:47.029Z,2.53
2022-12-31T18:31:16.675Z,2.45
2022-12-31T18:33:46.856Z,3.58
2022-12-31T18:36:18.871Z,2.88
2022-12-31T18:38:50.360Z,3.45
2022-12-31T18:41:21.317Z,2.03
2022-12-31T18:43:50.105Z,3.05
2022-12-31T18:46:20.858Z,2.30
2022-12-31T18:48:49.607Z,3.35
2022-12-31T18:51:19.450Z,2.85
2022-12-31T18:53:48.118Z,3.20
2022-12-31T18:56:17.610Z,2.80
2022-12-31T18:58:48.003Z,3.75
2022-12-31T19:01:26.101Z,3.72
2022-12-31T19:03:54.951Z,3.58
2022-12-31T19:06:27.175Z,3.33
2022-12-31T19:08:55.930Z,4.53
2022-12-31T19:11:25.074Z,4.35
2022-12-31T19:13:54.885Z,2.97
2022-12-31T19:16:23.429Z,3.45
2022-12-31T19:18:52.527Z,3.75
2022-12-31T19:21:22.653Z,5.15
2022-12-31T19:23:54.618Z,3.15
2022-12-31T19:26:23.757Z,4.57
2022-12-31T19:28:52.617Z,3.75
2022-12-31T19:31:22.504Z,2.92
2022-12-31T19:33:55.193Z,2.35
2022-12-31T19:36:25.205Z,2.85
2022-12-31T19:38:53.682Z,3.00
2022-12-31T19:41:23.735Z,2.85
2022-12-31T19:43:53.077Z,6.35
2022-12-31T19:46:24.672Z,9.95
2022-12-31T19:48:54.025Z,3.30
2022-12-31T19:51:23.270Z,2.80
2022-12-31T19:54:03.436Z,3.17
2022-12-31T19:56:35.824Z,3.03
2022-12-31T19:59:05.815Z,2.97
2022-12-31T20:04:28.728Z,3.83
2022-12-31T20:07:00.418Z,3.05
2022-12-31T20:09:28.945Z,10.57
2022-12-31T20:11:57.594Z,4.13
2022-12-31T20:14:28.359Z,2.53
2022-12-31T20:16:58.708Z,3.00
2022-12-31T20:19:27.259Z,2.92
2022-12-31T20:21:57.243Z,2.70
2022-12-31T20:24:28.603Z,3.55
2022-12-31T20:27:14.939Z,2.70
2022-12-31T20:29:52.084Z,3.05
2022-12-31T20:32:24.577Z,3.22
2022-12-31T20:35:00.764Z,3.45
2022-12-31T20:37:29.207Z,3.20
2022-12-31T20:40:00.417Z,3.17
2022-12-31T20:42:32.051Z,3.83
2022-12-31T20:45:01.760Z,3.10
2022-12-31T20:47:35.965Z,3.00
2022-12-31T20:50:12.550Z,3.67
2022-12-31T20:52:49.729Z,3.50
2022-12-31T20:55:25.595Z,4.13
2022-12-31T20:57:57.089Z,3.90
2022-12-31T21:00:27.928Z,3.45
2022-12-31T21:03:10.583Z,3.00
2022-12-31T21:09:33.137Z,3.13
2022-12-31T21:12:27.111Z,3.50
2022-12-31T21:14:57.868Z,3.85
2022-12-31T21:17:27.944Z,3.10
2022-12-31T21:19:57.968Z,4.00
2022-12-31T21:22:32.480Z,4.25
2022-12-31T21:25:03.855Z,3.47
2022-12-31T21:27:32.836Z,3.90
2022-12-31T21:30:21.139Z,2.90
2022-12-31T21:32:49.805Z,3.63
2022-12-31T21:38:09.300Z,3.15
2022-12-31T21:40:40.449Z,3.45
2022-12-31T21:43:09.207Z,2.45
2022-12-31T21:45:37.635Z,4.32
2022-12-31T21:48:22.080Z,3.08
2022-12-31T21:50:57.120Z,3.40
2022-12-31T21:53:36.596Z,4.15
2022-12-31T21:56:14.555Z,3.03
2022-12-31T21:58:43.758Z,4.28
2022-12-31T22:01:37.701Z,5.78
2022-12-31T22:04:10.007Z,3.67
2022-12-31T22:06:47.293Z,4.07
2022-12-31T22:09:15.819Z,7.80
2022-12-31T22:11:47.813Z,4.32
2022-12-31T22:14:16.404Z,4.32
2022-12-31T22:16:45.099Z,4.50
2022-12-31T22:19:13.839Z,3.63
2022-12-31T22:21:47.139Z,3.65
2022-12-31T22:24:17.463Z,3.80
2022-12-31T22:26:55.362Z,3.60
2022-12-31T22:29:26.135Z,4.35
2022-12-31T22:32:01.001Z,3.45
2022-12-31T22:34:35.951Z,12.07
2022-12-31T22:37:27.492Z,15.85
2022-12-31T22:39:57.475Z,18.55
2022-12-31T22:42:28.272Z,16.15
2022-12-31T22:44:56.767Z,10.10
2022-12-31T22:47:27.876Z,5.55
2022-12-31T22:49:56.459Z,7.30
2022-12-31T22:52:24.940Z,5.82
2022-12-31T22:54:53.601Z,5.80
2022-12-31T22:57:23.696Z,7.80
2022-12-31T22:59:52.723Z,10.73
2022-12-31T23:02:23.547Z,12.07
2022-12-31T23:04:52.156Z,106.25
2022-12-31T23:07:22.217Z,41.63
2022-12-31T23:10:08.363Z,40.88
2022-12-31T23:12:38.220Z,127.13
2022-12-31T23:15:24.610Z,143.05
2022-12-31T23:18:10.668Z,143.98
2022-12-31T23:21:00.764Z,127.80
2022-12-31T23:23:29.372Z,86.25
2022-12-31T23:26:07.078Z,80.65
2022-12-31T23:28:37.019Z,77.60
2022-12-31T23:31:07.651Z,52.85
2022-12-31T23:33:36.246Z,40.40
2022-12-31T23:36:06.153Z,41.60
2022-12-31T23:38:37.421Z,37.10
2022-12-31T23:41:13.068Z,101.20
2022-12-31T23:43:42.995Z,72.78
2022-12-31T23:46:11.637Z,56.80
2022-12-31T23:48:40.113Z,47.20
2022-12-31T23:51:08.503Z,36.13
2022-12-31T23:53:38.868Z,29.50
2022-12-31T23:56:12.922Z,20.52
2022-12-31T23:58:46.067Z,23.38
